Terminal Aerodrome Forecast
Issued by NWS Sterling, VA

Current Version | Previous Version | Graphics & Text | Print | Product List | Glossary On
Versions: 1 2 3 4 5 6 7 8 9 10 11 12 13 14 15 16 17 18 19 20
949
FTUS41 KLWX 032322 AAB
TAFMRB
TAF AMD
KMRB 032322Z 0323/0418 VRB03KT P6SM -SHRA VCTS BKN040CB
     FM040200 VRB03KT P6SM BKN025
     FM040500 00000KT 4SM -DZ BR BKN015
     FM040900 00000KT 2SM -DZ BR BKN008
     FM041300 00000KT P6SM BKN015=

USA.gov is the U.S. government's official web portal to all federal, state and local government web resources and services.